sensor_id;sensor_type;location;lat;lon;timestamp;P1;durP1;ratioP1;P2;durP2;ratioP2
28960;SDS011;16068;42.896;20.868;2023-02-15T00:01:35;19.02;;;11.82;;
28960;SDS011;16068;42.896;20.868;2023-02-15T00:04:22;23.35;;;12.50;;
28960;SDS011;16068;42.896;20.868;2023-02-15T00:07:12;20.48;;;11.52;;
28960;SDS011;16068;42.896;20.868;2023-02-15T00:10:01;29.63;;;13.27;;
28960;SDS011;16068;42.896;20.868;2023-02-15T00:12:50;21.10;;;12.82;;
28960;SDS011;16068;42.896;20.868;2023-02-15T00:15:35;26.85;;;13.38;;
28960;SDS011;16068;42.896;20.868;2023-02-15T00:18:21;22.80;;;12.65;;
28960;SDS011;16068;42.896;20.868;2023-02-15T00:21:08;27.48;;;13.00;;
28960;SDS011;16068;42.896;20.868;2023-02-15T00:23:55;23.20;;;11.60;;
28960;SDS011;16068;42.896;20.868;2023-02-15T00:26:43;27.90;;;11.30;;
28960;SDS011;16068;42.896;20.868;2023-02-15T00:29:29;18.27;;;11.77;;
28960;SDS011;16068;42.896;20.868;2023-02-15T00:32:17;21.73;;;11.10;;
28960;SDS011;16068;42.896;20.868;2023-02-15T00:35:04;23.15;;;10.93;;
28960;SDS011;16068;42.896;20.868;2023-02-15T00:37:51;18.85;;;10.48;;
28960;SDS011;16068;42.896;20.868;2023-02-15T00:40:38;19.02;;;9.98;;
28960;SDS011;16068;42.896;20.868;2023-02-15T00:43:24;17.42;;;10.63;;
28960;SDS011;16068;42.896;20.868;2023-02-15T00:46:11;18.80;;;11.25;;
28960;SDS011;16068;42.896;20.868;2023-02-15T00:48:57;16.02;;;9.73;;
28960;SDS011;16068;42.896;20.868;2023-02-15T00:51:43;16.92;;;10.48;;
28960;SDS011;16068;42.896;20.868;2023-02-15T00:54:34;16.88;;;11.18;;
28960;SDS011;16068;42.896;20.868;2023-02-15T00:57:21;17.83;;;10.88;;
28960;SDS011;16068;42.896;20.868;2023-02-15T01:00:10;18.42;;;10.82;;
28960;SDS011;16068;42.896;20.868;2023-02-15T01:02:56;17.85;;;10.90;;
28960;SDS011;16068;42.896;20.868;2023-02-15T01:05:42;17.75;;;11.30;;
28960;SDS011;16068;42.896;20.868;2023-02-15T01:08:28;18.20;;;10.70;;
28960;SDS011;16068;42.896;20.868;2023-02-15T01:11:18;17.95;;;10.73;;
28960;SDS011;16068;42.896;20.868;2023-02-15T01:14:09;19.65;;;11.90;;
28960;SDS011;16068;42.896;20.868;2023-02-15T01:16:56;17.33;;;10.93;;
28960;SDS011;16068;42.896;20.868;2023-02-15T01:19:43;18.40;;;11.00;;
28960;SDS011;16068;42.896;20.868;2023-02-15T01:22:29;19.05;;;11.18;;
28960;SDS011;16068;42.896;20.868;2023-02-15T01:25:15;18.80;;;10.60;;
28960;SDS011;16068;42.896;20.868;2023-02-15T01:28:08;19.85;;;11.45;;
28960;SDS011;16068;42.896;20.868;2023-02-15T01:30:54;23.15;;;11.10;;
28960;SDS011;16068;42.896;20.868;2023-02-15T01:33:41;20.48;;;11.70;;
28960;SDS011;16068;42.896;20.868;2023-02-15T01:36:27;32.85;;;11.55;;
28960;SDS011;16068;42.896;20.868;2023-02-15T01:39:13;28.23;;;12.27;;
28960;SDS011;16068;42.896;20.868;2023-02-15T01:42:02;20.17;;;10.98;;
28960;SDS011;16068;42.896;20.868;2023-02-15T01:47:36;19.20;;;11.52;;
28960;SDS011;16068;42.896;20.868;2023-02-15T01:50:33;22.23;;;12.00;;
28960;SDS011;16068;42.896;20.868;2023-02-15T01:56:27;21.25;;;11.70;;
28960;SDS011;16068;42.896;20.868;2023-02-15T01:59:16;21.02;;;11.88;;
28960;SDS011;16068;42.896;20.868;2023-02-15T02:02:09;19.85;;;12.20;;
28960;SDS011;16068;42.896;20.868;2023-02-15T02:05:01;20.20;;;12.10;;
28960;SDS011;16068;42.896;20.868;2023-02-15T02:07:57;24.70;;;12.90;;
28960;SDS011;16068;42.896;20.868;2023-02-15T02:10:46;22.25;;;12.10;;
28960;SDS011;16068;42.896;20.868;2023-02-15T02:13:32;18.88;;;12.45;;
28960;SDS011;16068;42.896;20.868;2023-02-15T02:19:18;23.75;;;11.60;;
28960;SDS011;16068;42.896;20.868;2023-02-15T02:34:55;22.38;;;13.05;;
28960;SDS011;16068;42.896;20.868;2023-02-15T02:44:46;24.92;;;11.80;;
28960;SDS011;16068;42.896;20.868;2023-02-15T02:47:57;19.38;;;11.90;;
28960;SDS011;16068;42.896;20.868;2023-02-15T02:50:46;19.88;;;11.48;;
28960;SDS011;16068;42.896;20.868;2023-02-15T02:53:32;17.70;;;11.52;;
28960;SDS011;16068;42.896;20.868;2023-02-15T02:59:38;20.98;;;12.48;;
28960;SDS011;16068;42.896;20.868;2023-02-15T03:02:37;18.42;;;10.65;;
28960;SDS011;16068;42.896;20.868;2023-02-15T03:05:27;18.50;;;11.18;;
28960;SDS011;16068;42.896;20.868;2023-02-15T03:08:25;17.95;;;11.05;;
28960;SDS011;16068;42.896;20.868;2023-02-15T03:11:17;20.77;;;12.70;;
28960;SDS011;16068;42.896;20.868;2023-02-15T03:14:03;20.13;;;11.40;;
28960;SDS011;16068;42.896;20.868;2023-02-15T03:16:52;19.40;;;11.48;;
28960;SDS011;16068;42.896;20.868;2023-02-15T03:20:03;18.40;;;11.23;;
28960;SDS011;16068;42.896;20.868;2023-02-15T03:22:55;20.17;;;11.60;;
28960;SDS011;16068;42.896;20.868;2023-02-15T03:25:46;19.02;;;10.85;;
28960;SDS011;16068;42.896;20.868;2023-02-15T03:28:41;21.90;;;11.35;;
28960;SDS011;16068;42.896;20.868;2023-02-15T03:31:29;20.25;;;11.90;;
28960;SDS011;16068;42.896;20.868;2023-02-15T03:37:47;20.27;;;12.32;;
28960;SDS011;16068;42.896;20.868;2023-02-15T03:40:45;19.23;;;11.15;;
28960;SDS011;16068;42.896;20.868;2023-02-15T03:44:29;21.10;;;11.93;;
28960;SDS011;16068;42.896;20.868;2023-02-15T03:47:20;21.20;;;11.90;;
28960;SDS011;16068;42.896;20.868;2023-02-15T03:50:10;21.35;;;13.48;;
28960;SDS011;16068;42.896;20.868;2023-02-15T03:53:25;20.80;;;13.15;;
28960;SDS011;16068;42.896;20.868;2023-02-15T03:56:12;20.95;;;12.32;;
28960;SDS011;16068;42.896;20.868;2023-02-15T03:58:59;20.70;;;12.43;;
28960;SDS011;16068;42.896;20.868;2023-02-15T04:05:53;18.60;;;10.73;;
28960;SDS011;16068;42.896;20.868;2023-02-15T04:08:39;29.25;;;13.38;;
28960;SDS011;16068;42.896;20.868;2023-02-15T04:12:04;24.45;;;10.85;;
28960;SDS011;16068;42.896;20.868;2023-02-15T04:14:50;18.90;;;10.88;;
28960;SDS011;16068;42.896;20.868;2023-02-15T04:18:02;18.50;;;10.40;;
28960;SDS011;16068;42.896;20.868;2023-02-15T04:20:50;17.60;;;10.27;;
28960;SDS011;16068;42.896;20.868;2023-02-15T04:23:54;17.15;;;10.93;;
28960;SDS011;16068;42.896;20.868;2023-02-15T04:27:02;15.73;;;9.73;;
28960;SDS011;16068;42.896;20.868;2023-02-15T04:29:51;15.57;;;10.05;;
28960;SDS011;16068;42.896;20.868;2023-02-15T04:32:36;19.85;;;10.85;;
28960;SDS011;16068;42.896;20.868;2023-02-15T04:35:22;20.05;;;11.73;;
28960;SDS011;16068;42.896;20.868;2023-02-15T04:38:08;21.75;;;11.30;;
28960;SDS011;16068;42.896;20.868;2023-02-15T04:40:56;22.25;;;12.55;;
28960;SDS011;16068;42.896;20.868;2023-02-15T04:43:42;18.92;;;11.25;;
28960;SDS011;16068;42.896;20.868;2023-02-15T04:46:28;18.80;;;11.80;;
28960;SDS011;16068;42.896;20.868;2023-02-15T04:49:14;18.25;;;11.23;;
28960;SDS011;16068;42.896;20.868;2023-02-15T04:52:01;16.77;;;11.50;;
28960;SDS011;16068;42.896;20.868;2023-02-15T04:54:47;22.27;;;11.75;;
28960;SDS011;16068;42.896;20.868;2023-02-15T04:57:33;21.00;;;11.32;;
28960;SDS011;16068;42.896;20.868;2023-02-15T05:00:19;18.02;;;10.88;;
28960;SDS011;16068;42.896;20.868;2023-02-15T05:03:05;17.55;;;11.13;;
28960;SDS011;16068;42.896;20.868;2023-02-15T05:05:51;19.38;;;12.25;;
28960;SDS011;16068;42.896;20.868;2023-02-15T05:08:37;18.30;;;11.35;;
28960;SDS011;16068;42.896;20.868;2023-02-15T05:11:22;21.27;;;12.30;;
28960;SDS011;16068;42.896;20.868;2023-02-15T05:14:08;17.98;;;11.63;;
28960;SDS011;16068;42.896;20.868;2023-02-15T05:16:55;23.27;;;11.85;;
28960;SDS011;16068;42.896;20.868;2023-02-15T05:19:41;17.27;;;11.50;;
28960;SDS011;16068;42.896;20.868;2023-02-15T05:22:28;19.52;;;11.73;;
28960;SDS011;16068;42.896;20.868;2023-02-15T05:25:14;17.83;;;11.65;;
28960;SDS011;16068;42.896;20.868;2023-02-15T05:28:19;22.48;;;12.75;;
28960;SDS011;16068;42.896;20.868;2023-02-15T05:33:52;26.65;;;13.73;;
28960;SDS011;16068;42.896;20.868;2023-02-15T05:36:38;49.63;;;15.65;;
28960;SDS011;16068;42.896;20.868;2023-02-15T05:39:24;26.77;;;13.90;;
28960;SDS011;16068;42.896;20.868;2023-02-15T05:42:10;38.95;;;15.20;;
28960;SDS011;16068;42.896;20.868;2023-02-15T05:44:55;19.40;;;12.05;;
28960;SDS011;16068;42.896;20.868;2023-02-15T05:47:42;18.90;;;11.93;;
28960;SDS011;16068;42.896;20.868;2023-02-15T05:50:29;29.38;;;13.63;;
28960;SDS011;16068;42.896;20.868;2023-02-15T05:53:18;21.40;;;11.98;;
28960;SDS011;16068;42.896;20.868;2023-02-15T05:56:05;23.20;;;13.10;;
28960;SDS011;16068;42.896;20.868;2023-02-15T05:58:52;26.52;;;13.70;;
28960;SDS011;16068;42.896;20.868;2023-02-15T06:01:39;28.35;;;12.68;;
28960;SDS011;16068;42.896;20.868;2023-02-15T06:04:25;27.02;;;12.65;;
28960;SDS011;16068;42.896;20.868;2023-02-15T06:07:11;25.15;;;13.35;;
28960;SDS011;16068;42.896;20.868;2023-02-15T06:09:57;35.38;;;14.45;;
28960;SDS011;16068;42.896;20.868;2023-02-15T06:12:43;23.30;;;13.90;;
28960;SDS011;16068;42.896;20.868;2023-02-15T06:15:37;30.80;;;15.60;;
28960;SDS011;16068;42.896;20.868;2023-02-15T06:18:23;23.33;;;13.32;;
28960;SDS011;16068;42.896;20.868;2023-02-15T06:21:09;28.38;;;14.02;;
28960;SDS011;16068;42.896;20.868;2023-02-15T06:23:56;24.38;;;13.98;;
28960;SDS011;16068;42.896;20.868;2023-02-15T06:26:42;30.73;;;14.85;;
28960;SDS011;16068;42.896;20.868;2023-02-15T06:29:30;33.45;;;16.27;;
28960;SDS011;16068;42.896;20.868;2023-02-15T06:32:15;40.67;;;15.90;;
28960;SDS011;16068;42.896;20.868;2023-02-15T06:35:03;32.17;;;16.20;;
28960;SDS011;16068;42.896;20.868;2023-02-15T06:37:49;48.13;;;18.00;;
28960;SDS011;16068;42.896;20.868;2023-02-15T06:40:36;30.58;;;15.20;;
28960;SDS011;16068;42.896;20.868;2023-02-15T06:43:21;41.92;;;20.13;;
28960;SDS011;16068;42.896;20.868;2023-02-15T06:46:08;30.02;;;15.65;;
28960;SDS011;16068;42.896;20.868;2023-02-15T06:49:00;27.67;;;14.18;;
28960;SDS011;16068;42.896;20.868;2023-02-15T06:51:46;26.30;;;13.60;;
28960;SDS011;16068;42.896;20.868;2023-02-15T06:54:32;20.55;;;12.30;;
28960;SDS011;16068;42.896;20.868;2023-02-15T06:57:18;23.02;;;13.48;;
28960;SDS011;16068;42.896;20.868;2023-02-15T07:00:04;25.08;;;14.07;;
28960;SDS011;16068;42.896;20.868;2023-02-15T07:02:55;33.15;;;18.00;;
28960;SDS011;16068;42.896;20.868;2023-02-15T07:05:42;23.25;;;13.48;;
28960;SDS011;16068;42.896;20.868;2023-02-15T07:08:35;25.23;;;14.27;;
28960;SDS011;16068;42.896;20.868;2023-02-15T07:11:21;21.70;;;12.52;;
28960;SDS011;16068;42.896;20.868;2023-02-15T07:14:30;23.80;;;13.27;;
28960;SDS011;16068;42.896;20.868;2023-02-15T07:17:16;30.23;;;15.57;;
28960;SDS011;16068;42.896;20.868;2023-02-15T07:20:22;29.85;;;14.52;;
28960;SDS011;16068;42.896;20.868;2023-02-15T07:23:16;19.13;;;12.05;;
28960;SDS011;16068;42.896;20.868;2023-02-15T07:26:02;31.98;;;14.60;;
28960;SDS011;16068;42.896;20.868;2023-02-15T07:28:49;24.25;;;14.55;;
28960;SDS011;16068;42.896;20.868;2023-02-15T07:31:35;21.33;;;13.07;;
28960;SDS011;16068;42.896;20.868;2023-02-15T07:34:21;23.55;;;11.75;;
28960;SDS011;16068;42.896;20.868;2023-02-15T07:37:08;21.80;;;12.27;;
28960;SDS011;16068;42.896;20.868;2023-02-15T07:39:53;24.00;;;14.48;;
28960;SDS011;16068;42.896;20.868;2023-02-15T07:42:43;25.00;;;12.82;;
28960;SDS011;16068;42.896;20.868;2023-02-15T07:45:29;18.65;;;11.30;;
28960;SDS011;16068;42.896;20.868;2023-02-15T07:48:14;21.05;;;12.18;;
28960;SDS011;16068;42.896;20.868;2023-02-15T07:51:03;22.35;;;11.90;;
28960;SDS011;16068;42.896;20.868;2023-02-15T07:53:50;26.90;;;12.30;;
28960;SDS011;16068;42.896;20.868;2023-02-15T07:56:36;22.77;;;14.18;;
28960;SDS011;16068;42.896;20.868;2023-02-15T07:59:22;18.63;;;12.60;;
28960;SDS011;16068;42.896;20.868;2023-02-15T08:02:10;25.90;;;13.05;;
28960;SDS011;16068;42.896;20.868;2023-02-15T08:04:58;24.55;;;12.57;;
28960;SDS011;16068;42.896;20.868;2023-02-15T08:07:44;22.42;;;13.75;;
28960;SDS011;16068;42.896;20.868;2023-02-15T08:10:29;21.45;;;13.07;;
28960;SDS011;16068;42.896;20.868;2023-02-15T08:13:40;21.58;;;13.23;;
28960;SDS011;16068;42.896;20.868;2023-02-15T08:19:29;35.83;;;13.43;;
28960;SDS011;16068;42.896;20.868;2023-02-15T08:22:15;22.25;;;12.43;;
28960;SDS011;16068;42.896;20.868;2023-02-15T08:25:03;26.58;;;12.98;;
28960;SDS011;16068;42.896;20.868;2023-02-15T08:27:49;26.65;;;13.02;;
28960;SDS011;16068;42.896;20.868;2023-02-15T08:30:36;21.00;;;12.68;;
28960;SDS011;16068;42.896;20.868;2023-02-15T08:33:22;25.05;;;14.07;;
28960;SDS011;16068;42.896;20.868;2023-02-15T08:36:08;22.65;;;12.40;;
28960;SDS011;16068;42.896;20.868;2023-02-15T08:39:00;22.27;;;12.45;;
28960;SDS011;16068;42.896;20.868;2023-02-15T08:41:48;22.77;;;11.77;;
28960;SDS011;16068;42.896;20.868;2023-02-15T08:44:34;24.95;;;13.10;;
28960;SDS011;16068;42.896;20.868;2023-02-15T08:47:20;35.95;;;14.25;;
28960;SDS011;16068;42.896;20.868;2023-02-15T08:50:06;31.55;;;14.27;;
28960;SDS011;16068;42.896;20.868;2023-02-15T08:52:52;30.63;;;13.75;;
28960;SDS011;16068;42.896;20.868;2023-02-15T08:55:41;23.15;;;12.60;;
28960;SDS011;16068;42.896;20.868;2023-02-15T08:58:28;29.05;;;13.85;;
28960;SDS011;16068;42.896;20.868;2023-02-15T09:01:18;28.63;;;13.80;;
28960;SDS011;16068;42.896;20.868;2023-02-15T09:04:06;26.08;;;13.35;;
28960;SDS011;16068;42.896;20.868;2023-02-15T09:06:55;28.92;;;15.65;;
28960;SDS011;16068;42.896;20.868;2023-02-15T09:09:41;26.42;;;13.98;;
28960;SDS011;16068;42.896;20.868;2023-02-15T09:12:27;28.23;;;12.35;;
28960;SDS011;16068;42.896;20.868;2023-02-15T09:15:13;29.60;;;13.85;;
28960;SDS011;16068;42.896;20.868;2023-02-15T09:17:58;28.25;;;14.55;;
28960;SDS011;16068;42.896;20.868;2023-02-15T09:20:50;26.85;;;13.48;;
28960;SDS011;16068;42.896;20.868;2023-02-15T09:23:39;29.27;;;14.07;;
28960;SDS011;16068;42.896;20.868;2023-02-15T09:26:27;33.65;;;13.63;;
28960;SDS011;16068;42.896;20.868;2023-02-15T09:29:14;21.10;;;11.23;;
28960;SDS011;16068;42.896;20.868;2023-02-15T09:32:02;21.15;;;11.82;;
28960;SDS011;16068;42.896;20.868;2023-02-15T09:34:47;23.60;;;12.27;;
28960;SDS011;16068;42.896;20.868;2023-02-15T09:37:35;19.23;;;11.95;;
28960;SDS011;16068;42.896;20.868;2023-02-15T09:40:21;29.27;;;12.05;;
28960;SDS011;16068;42.896;20.868;2023-02-15T09:43:11;17.45;;;11.85;;
28960;SDS011;16068;42.896;20.868;2023-02-15T09:46:07;24.08;;;12.57;;
28960;SDS011;16068;42.896;20.868;2023-02-15T09:49:04;20.77;;;11.82;;
28960;SDS011;16068;42.896;20.868;2023-02-15T09:58:26;18.27;;;10.25;;
28960;SDS011;16068;42.896;20.868;2023-02-15T10:18:46;19.75;;;10.77;;
28960;SDS011;16068;42.896;20.868;2023-02-15T10:21:58;15.55;;;10.10;;
28960;SDS011;16068;42.896;20.868;2023-02-15T10:28:13;17.65;;;10.82;;
28960;SDS011;16068;42.896;20.868;2023-02-15T10:56:48;17.73;;;10.23;;
28960;SDS011;16068;42.896;20.868;2023-02-15T11:02:59;15.05;;;10.30;;
28960;SDS011;16068;42.896;20.868;2023-02-15T11:09:04;14.20;;;10.50;;
28960;SDS011;16068;42.896;20.868;2023-02-15T11:11:59;14.68;;;10.57;;
28960;SDS011;16068;42.896;20.868;2023-02-15T11:14:57;17.50;;;10.38;;
28960;SDS011;16068;42.896;20.868;2023-02-15T11:17:47;28.63;;;14.68;;
28960;SDS011;16068;42.896;20.868;2023-02-15T11:24:07;17.58;;;10.75;;
28960;SDS011;16068;42.896;20.868;2023-02-15T11:27:26;17.23;;;9.50;;
28960;SDS011;16068;42.896;20.868;2023-02-15T11:30:20;12.80;;;9.05;;
28960;SDS011;16068;42.896;20.868;2023-02-15T11:33:18;28.00;;;12.50;;
28960;SDS011;16068;42.896;20.868;2023-02-15T11:36:09;15.10;;;9.55;;
28960;SDS011;16068;42.896;20.868;2023-02-15T11:39:10;13.27;;;9.13;;
28960;SDS011;16068;42.896;20.868;2023-02-15T11:42:19;23.92;;;9.65;;
28960;SDS011;16068;42.896;20.868;2023-02-15T11:48:14;16.58;;;10.55;;
28960;SDS011;16068;42.896;20.868;2023-02-15T11:51:01;13.45;;;9.43;;
28960;SDS011;16068;42.896;20.868;2023-02-15T11:53:48;13.13;;;9.40;;
28960;SDS011;16068;42.896;20.868;2023-02-15T11:56:35;17.77;;;9.95;;
28960;SDS011;16068;42.896;20.868;2023-02-15T11:59:24;21.75;;;10.77;;
28960;SDS011;16068;42.896;20.868;2023-02-15T12:02:20;23.52;;;12.35;;
28960;SDS011;16068;42.896;20.868;2023-02-15T12:05:11;21.77;;;10.68;;
28960;SDS011;16068;42.896;20.868;2023-02-15T12:10:57;113.38;;;13.40;;
28960;SDS011;16068;42.896;20.868;2023-02-15T12:16:46;31.98;;;14.18;;
28960;SDS011;16068;42.896;20.868;2023-02-15T12:19:38;49.85;;;15.48;;
28960;SDS011;16068;42.896;20.868;2023-02-15T12:22:30;28.35;;;14.13;;
28960;SDS011;16068;42.896;20.868;2023-02-15T12:25:26;25.63;;;14.60;;
28960;SDS011;16068;42.896;20.868;2023-02-15T12:28:32;42.75;;;15.00;;
28960;SDS011;16068;42.896;20.868;2023-02-15T12:34:09;22.33;;;13.77;;
28960;SDS011;16068;42.896;20.868;2023-02-15T12:37:00;24.42;;;13.68;;
28960;SDS011;16068;42.896;20.868;2023-02-15T12:39:55;35.47;;;13.48;;
28960;SDS011;16068;42.896;20.868;2023-02-15T12:42:43;29.80;;;14.90;;
28960;SDS011;16068;42.896;20.868;2023-02-15T12:45:31;33.67;;;15.63;;
28960;SDS011;16068;42.896;20.868;2023-02-15T12:48:19;33.85;;;14.73;;
28960;SDS011;16068;42.896;20.868;2023-02-15T12:51:13;28.88;;;15.60;;
28960;SDS011;16068;42.896;20.868;2023-02-15T12:54:00;25.15;;;16.05;;
28960;SDS011;16068;42.896;20.868;2023-02-15T12:56:49;26.70;;;15.40;;
28960;SDS011;16068;42.896;20.868;2023-02-15T12:59:35;27.73;;;16.92;;
28960;SDS011;16068;42.896;20.868;2023-02-15T13:02:57;21.38;;;15.45;;
28960;SDS011;16068;42.896;20.868;2023-02-15T13:05:42;20.60;;;15.07;;
28960;SDS011;16068;42.896;20.868;2023-02-15T13:11:32;29.60;;;14.68;;
28960;SDS011;16068;42.896;20.868;2023-02-15T13:14:31;25.60;;;14.30;;
28960;SDS011;16068;42.896;20.868;2023-02-15T13:17:20;29.08;;;14.25;;
28960;SDS011;16068;42.896;20.868;2023-02-15T13:23:05;20.77;;;14.07;;
28960;SDS011;16068;42.896;20.868;2023-02-15T13:26:03;22.58;;;13.23;;
28960;SDS011;16068;42.896;20.868;2023-02-15T13:28:55;21.27;;;14.35;;
28960;SDS011;16068;42.896;20.868;2023-02-15T13:31:50;26.05;;;14.15;;
28960;SDS011;16068;42.896;20.868;2023-02-15T13:34:41;28.52;;;15.65;;
28960;SDS011;16068;42.896;20.868;2023-02-15T13:46:52;26.35;;;16.08;;
28960;SDS011;16068;42.896;20.868;2023-02-15T13:56:49;27.92;;;14.60;;
28960;SDS011;16068;42.896;20.868;2023-02-15T14:06:16;34.20;;;17.33;;
28960;SDS011;16068;42.896;20.868;2023-02-15T14:18:45;29.45;;;17.52;;
28960;SDS011;16068;42.896;20.868;2023-02-15T14:21:36;27.98;;;19.52;;
28960;SDS011;16068;42.896;20.868;2023-02-15T14:36:28;34.67;;;17.13;;
28960;SDS011;16068;42.896;20.868;2023-02-15T14:42:56;29.02;;;18.92;;
28960;SDS011;16068;42.896;20.868;2023-02-15T14:45:56;36.10;;;21.17;;
28960;SDS011;16068;42.896;20.868;2023-02-15T14:48:53;29.92;;;19.98;;
28960;SDS011;16068;42.896;20.868;2023-02-15T15:00:02;39.50;;;24.70;;
28960;SDS011;16068;42.896;20.868;2023-02-15T15:02:52;39.85;;;21.95;;
28960;SDS011;16068;42.896;20.868;2023-02-15T15:05:50;37.25;;;24.00;;
28960;SDS011;16068;42.896;20.868;2023-02-15T15:08:38;46.17;;;27.25;;
28960;SDS011;16068;42.896;20.868;2023-02-15T15:26:27;47.00;;;26.85;;
28960;SDS011;16068;42.896;20.868;2023-02-15T15:29:30;51.38;;;27.42;;
28960;SDS011;16068;42.896;20.868;2023-02-15T15:32:25;53.20;;;29.50;;
28960;SDS011;16068;42.896;20.868;2023-02-15T15:35:23;56.03;;;29.40;;
28960;SDS011;16068;42.896;20.868;2023-02-15T15:41:21;75.78;;;32.50;;
28960;SDS011;16068;42.896;20.868;2023-02-15T15:50:24;45.30;;;26.10;;
28960;SDS011;16068;42.896;20.868;2023-02-15T15:53:22;46.67;;;26.35;;
28960;SDS011;16068;42.896;20.868;2023-02-15T15:56:11;51.03;;;28.60;;
28960;SDS011;16068;42.896;20.868;2023-02-15T15:59:06;49.83;;;28.38;;
28960;SDS011;16068;42.896;20.868;2023-02-15T16:04:39;51.78;;;28.88;;
28960;SDS011;16068;42.896;20.868;2023-02-15T16:07:25;66.40;;;34.17;;
28960;SDS011;16068;42.896;20.868;2023-02-15T16:10:24;65.68;;;33.72;;
28960;SDS011;16068;42.896;20.868;2023-02-15T16:13:11;67.22;;;37.05;;
28960;SDS011;16068;42.896;20.868;2023-02-15T16:16:00;58.45;;;33.15;;
28960;SDS011;16068;42.896;20.868;2023-02-15T16:18:46;63.28;;;32.80;;
28960;SDS011;16068;42.896;20.868;2023-02-15T16:21:34;65.07;;;33.67;;
28960;SDS011;16068;42.896;20.868;2023-02-15T16:33:12;71.20;;;37.38;;
28960;SDS011;16068;42.896;20.868;2023-02-15T16:36:01;74.65;;;37.28;;
28960;SDS011;16068;42.896;20.868;2023-02-15T16:41:35;101.90;;;45.97;;
28960;SDS011;16068;42.896;20.868;2023-02-15T16:44:23;81.93;;;38.30;;
28960;SDS011;16068;42.896;20.868;2023-02-15T16:47:12;69.70;;;35.53;;
28960;SDS011;16068;42.896;20.868;2023-02-15T16:50:17;89.47;;;40.92;;
28960;SDS011;16068;42.896;20.868;2023-02-15T16:53:05;76.00;;;36.72;;
28960;SDS011;16068;42.896;20.868;2023-02-15T16:55:59;79.07;;;35.78;;
28960;SDS011;16068;42.896;20.868;2023-02-15T16:58:49;81.35;;;32.97;;
28960;SDS011;16068;42.896;20.868;2023-02-15T17:01:36;88.43;;;40.53;;
28960;SDS011;16068;42.896;20.868;2023-02-15T17:07:20;95.68;;;48.92;;
28960;SDS011;16068;42.896;20.868;2023-02-15T17:13:16;64.40;;;37.25;;
28960;SDS011;16068;42.896;20.868;2023-02-15T17:18:50;107.63;;;45.30;;
28960;SDS011;16068;42.896;20.868;2023-02-15T17:21:40;88.85;;;45.10;;
28960;SDS011;16068;42.896;20.868;2023-02-15T17:27:21;80.25;;;38.30;;
28960;SDS011;16068;42.896;20.868;2023-02-15T17:30:20;69.32;;;32.50;;
28960;SDS011;16068;42.896;20.868;2023-02-15T17:33:26;82.32;;;38.30;;
28960;SDS011;16068;42.896;20.868;2023-02-15T17:36:22;105.75;;;49.30;;
28960;SDS011;16068;42.896;20.868;2023-02-15T17:39:20;83.85;;;41.47;;
28960;SDS011;16068;42.896;20.868;2023-02-15T17:42:07;66.30;;;34.38;;
28960;SDS011;16068;42.896;20.868;2023-02-15T17:44:53;76.63;;;40.70;;
28960;SDS011;16068;42.896;20.868;2023-02-15T17:47:39;82.15;;;36.78;;
28960;SDS011;16068;42.896;20.868;2023-02-15T17:50:28;65.15;;;33.13;;
28960;SDS011;16068;42.896;20.868;2023-02-15T17:53:16;74.68;;;34.50;;
28960;SDS011;16068;42.896;20.868;2023-02-15T17:56:04;99.80;;;44.15;;
28960;SDS011;16068;42.896;20.868;2023-02-15T17:58:55;80.72;;;40.05;;
28960;SDS011;16068;42.896;20.868;2023-02-15T18:01:47;77.28;;;39.60;;
28960;SDS011;16068;42.896;20.868;2023-02-15T18:04:52;135.05;;;59.75;;
28960;SDS011;16068;42.896;20.868;2023-02-15T18:07:57;78.38;;;40.15;;
28960;SDS011;16068;42.896;20.868;2023-02-15T18:11:02;76.70;;;41.45;;
28960;SDS011;16068;42.896;20.868;2023-02-15T18:14:08;72.30;;;36.30;;
28960;SDS011;16068;42.896;20.868;2023-02-15T18:16:55;72.15;;;36.28;;
28960;SDS011;16068;42.896;20.868;2023-02-15T18:19:42;75.45;;;37.95;;
28960;SDS011;16068;42.896;20.868;2023-02-15T18:22:29;73.72;;;34.50;;
28960;SDS011;16068;42.896;20.868;2023-02-15T18:25:16;81.20;;;36.55;;
28960;SDS011;16068;42.896;20.868;2023-02-15T18:28:03;81.20;;;36.63;;
28960;SDS011;16068;42.896;20.868;2023-02-15T18:30:50;71.35;;;30.75;;
28960;SDS011;16068;42.896;20.868;2023-02-15T18:33:55;78.05;;;33.97;;
28960;SDS011;16068;42.896;20.868;2023-02-15T18:36:43;64.80;;;33.95;;
28960;SDS011;16068;42.896;20.868;2023-02-15T18:42:32;88.53;;;37.60;;
28960;SDS011;16068;42.896;20.868;2023-02-15T18:45:23;77.60;;;39.78;;
28960;SDS011;16068;42.896;20.868;2023-02-15T18:48:13;75.10;;;38.90;;
28960;SDS011;16068;42.896;20.868;2023-02-15T18:51:00;86.15;;;36.75;;
28960;SDS011;16068;42.896;20.868;2023-02-15T18:53:48;78.72;;;37.30;;
28960;SDS011;16068;42.896;20.868;2023-02-15T18:56:36;96.13;;;40.33;;
28960;SDS011;16068;42.896;20.868;2023-02-15T18:59:23;80.82;;;40.08;;
28960;SDS011;16068;42.896;20.868;2023-02-15T19:02:15;75.05;;;40.85;;
28960;SDS011;16068;42.896;20.868;2023-02-15T19:05:02;78.68;;;43.28;;
28960;SDS011;16068;42.896;20.868;2023-02-15T19:07:48;178.82;;;95.50;;
28960;SDS011;16068;42.896;20.868;2023-02-15T19:10:35;97.70;;;50.50;;
28960;SDS011;16068;42.896;20.868;2023-02-15T19:13:21;93.53;;;46.45;;
28960;SDS011;16068;42.896;20.868;2023-02-15T19:16:08;92.93;;;42.92;;
28960;SDS011;16068;42.896;20.868;2023-02-15T19:19:16;76.22;;;38.15;;
28960;SDS011;16068;42.896;20.868;2023-02-15T19:22:02;88.00;;;43.45;;
28960;SDS011;16068;42.896;20.868;2023-02-15T19:24:49;100.88;;;46.55;;
28960;SDS011;16068;42.896;20.868;2023-02-15T19:27:36;93.55;;;48.47;;
28960;SDS011;16068;42.896;20.868;2023-02-15T19:30:29;88.43;;;45.78;;
28960;SDS011;16068;42.896;20.868;2023-02-15T19:33:17;87.80;;;45.90;;
28960;SDS011;16068;42.896;20.868;2023-02-15T19:36:05;79.22;;;42.70;;
28960;SDS011;16068;42.896;20.868;2023-02-15T19:38:58;100.38;;;43.28;;
28960;SDS011;16068;42.896;20.868;2023-02-15T19:41:46;89.45;;;42.05;;
28960;SDS011;16068;42.896;20.868;2023-02-15T19:44:32;77.80;;;40.63;;
28960;SDS011;16068;42.896;20.868;2023-02-15T19:47:18;92.68;;;43.53;;
28960;SDS011;16068;42.896;20.868;2023-02-15T19:50:04;82.72;;;42.92;;
28960;SDS011;16068;42.896;20.868;2023-02-15T19:52:51;88.43;;;41.70;;
28960;SDS011;16068;42.896;20.868;2023-02-15T19:55:37;83.00;;;41.40;;
28960;SDS011;16068;42.896;20.868;2023-02-15T19:58:24;90.97;;;42.28;;
28960;SDS011;16068;42.896;20.868;2023-02-15T20:01:09;85.47;;;40.95;;
28960;SDS011;16068;42.896;20.868;2023-02-15T20:03:56;83.22;;;40.28;;
28960;SDS011;16068;42.896;20.868;2023-02-15T20:06:45;76.22;;;39.22;;
28960;SDS011;16068;42.896;20.868;2023-02-15T20:09:32;77.13;;;39.28;;
28960;SDS011;16068;42.896;20.868;2023-02-15T20:12:23;79.95;;;42.22;;
28960;SDS011;16068;42.896;20.868;2023-02-15T20:15:15;79.20;;;40.35;;
28960;SDS011;16068;42.896;20.868;2023-02-15T20:18:04;84.38;;;41.33;;